Time;durP1;ratioP1;P1;durP2;ratioP2;P2;SDS_P1;SDS_P2;PMS_P1;PMS_P2;Temp;Humidity;BMP_temperature;BMP_pressure;BME280_temperature;BME280_humidity;BME280_pressure;Samples;Min_cycle;Max_cycle;Signal;HPM_P1;HPM_P2
2022/07/05 00:01:56;;;;;;;;;3.00;1.00;;;;;21.00;69.35;101980.00;5054002;28;62668;-73
2022/07/05 00:04:22;;;;;;;;;2.33;2.00;;;;;20.96;70.09;101972.88;5054773;28;57558;-74
2022/07/05 00:09:31;;;;;;;;;1.33;1.33;;;;;20.90;70.36;101985.47;5055445;28;45336;-73
2022/07/05 00:11:56;;;;;;;;;2.00;2.00;;;;;20.89;70.14;101981.03;5053575;28;63454;-74
2022/07/05 00:14:21;;;;;;;;;2.00;2.00;;;;;20.83;70.77;101983.78;5052654;28;60777;-74
2022/07/05 00:16:47;;;;;;;;;2.67;1.00;;;;;20.76;71.88;101974.03;5055075;28;45678;-74
2022/07/05 00:19:12;;;;;;;;;3.00;2.00;;;;;20.70;71.32;101979.47;5053607;28;67530;-73
2022/07/05 00:21:37;;;;;;;;;1.00;1.00;;;;;20.64;71.54;101985.81;5053952;28;64222;-74
2022/07/05 00:24:03;;;;;;;;;2.00;1.00;;;;;20.61;71.74;101987.63;5054450;28;61167;-74
2022/07/05 00:26:28;;;;;;;;;5.00;2.00;;;;;20.58;73.18;101979.63;5057208;28;46315;-74
2022/07/05 00:28:54;;;;;;;;;4.00;1.00;;;;;20.54;72.71;101984.13;5054659;28;46540;-73
2022/07/05 00:31:19;;;;;;;;;2.00;2.00;;;;;20.49;73.50;101985.09;5054882;28;67038;-73
2022/07/05 00:33:44;;;;;;;;;4.00;2.00;;;;;20.46;73.52;101987.81;5057797;28;61099;-73
2022/07/05 00:36:10;;;;;;;;;2.67;2.00;;;;;20.42;72.95;101981.56;5049123;28;55776;-73
2022/07/05 00:38:35;;;;;;;;;2.67;2.00;;;;;20.39;73.82;101974.44;5055871;28;71139;-74
2022/07/05 00:41:00;;;;;;;;;1.33;1.33;;;;;20.36;73.80;101987.00;5057349;28;61867;-73
2022/07/05 00:43:26;;;;;;;;;2.00;2.00;;;;;20.30;74.14;101981.72;5057804;28;63446;-73
2022/07/05 00:45:51;;;;;;;;;4.00;2.00;;;;;20.31;74.55;101989.75;5057420;28;57285;-73
2022/07/05 00:48:16;;;;;;;;;2.00;2.00;;;;;20.27;75.82;101987.09;5058065;28;47400;-73
2022/07/05 00:50:42;;;;;;;;;1.67;1.67;;;;;20.23;75.16;101994.28;5057920;28;45484;-73
2022/07/05 00:53:08;;;;;;;;;2.33;2.00;;;;;20.18;76.00;101990.75;5057896;28;45624;-73
2022/07/05 00:55:33;;;;;;;;;2.00;2.00;;;;;20.15;76.14;101994.38;5057908;28;47037;-73
2022/07/05 00:57:59;;;;;;;;;2.67;1.00;;;;;20.10;76.95;101992.66;5057829;28;46255;-73
2022/07/05 01:00:24;;;;;;;;;3.33;1.00;;;;;20.07;76.33;102000.72;5056062;28;63354;-73
2022/07/05 01:02:50;;;;;;;;;4.67;2.00;;;;;20.00;77.20;101993.63;5057251;28;45514;-73
2022/07/05 01:05:15;;;;;;;;;1.67;1.67;;;;;19.96;76.39;101997.25;5057451;28;45522;-74
2022/07/05 01:07:41;;;;;;;;;3.00;3.00;;;;;19.93;77.34;101994.59;5057323;28;46574;-73
2022/07/05 01:10:07;;;;;;;;;1.00;1.00;;;;;19.87;77.26;101993.75;5057881;28;48978;-73
2022/07/05 01:12:32;;;;;;;;;1.00;1.00;;;;;19.79;78.14;101989.34;5057217;28;45379;-73
2022/07/05 01:14:58;;;;;;;;;1.33;1.33;;;;;19.70;78.47;101984.94;5056138;28;58869;-74
2022/07/05 01:17:23;;;;;;;;;0.33;0.33;;;;;19.63;78.99;101984.13;5057482;28;46312;-73
2022/07/05 01:19:50;;;;;;;;;1.67;1.67;;;;;19.57;78.44;101981.47;5055736;28;62297;-73
2022/07/05 01:22:18;;;;;;;;;1.33;1.33;;;;;19.54;79.27;101981.47;5056996;28;45411;-73
2022/07/05 01:24:45;;;;;;;;;1.00;1.00;;;;;19.48;78.61;101980.63;5057571;28;45382;-73
2022/07/05 01:27:11;;;;;;;;;0.33;0.33;;;;;19.44;78.99;101986.91;5056798;28;47336;-73
2022/07/05 01:29:36;;;;;;;;;1.33;1.33;;;;;19.38;79.51;101983.38;5057451;28;45347;-73
2022/07/05 01:32:02;;;;;;;;;2.33;1.00;;;;;19.37;79.70;101978.94;5057127;28;45846;-74
2022/07/05 01:34:27;;;;;;;;;2.67;1.00;;;;;19.34;79.50;101978.06;5057620;28;45276;-73
2022/07/05 01:36:53;;;;;;;;;4.00;2.00;;;;;19.28;79.90;101975.41;5056938;28;48577;-73
2022/07/05 01:39:19;;;;;;;;;1.33;1.33;;;;;19.25;80.52;101981.69;5057280;28;45489;-73
2022/07/05 01:41:44;;;;;;;;;2.00;1.00;;;;;19.23;81.22;101983.50;5057418;28;45509;-73
2022/07/05 01:44:11;;;;;;;;;0.33;0.33;;;;;19.18;81.99;101979.97;5057160;28;45460;-73
2022/07/05 01:46:39;;;;;;;;;3.00;2.00;;;;;19.09;81.82;101983.56;5056991;28;47315;-73
2022/07/05 01:49:09;;;;;;;;;1.00;1.00;;;;;19.03;82.30;101982.72;5056988;28;45423;-73
2022/07/05 01:51:40;;;;;;;;;1.00;1.00;;;;;18.98;82.39;101981.88;5054840;28;45553;-74
2022/07/05 01:54:05;;;;;;;;;1.67;1.67;;;;;18.94;83.04;101977.41;5057478;28;45475;-73
2022/07/05 01:56:31;;;;;;;;;2.33;2.00;;;;;18.91;83.50;101981.00;5056488;28;55054;-74
2022/07/05 01:58:57;;;;;;;;;2.00;2.00;;;;;18.88;83.44;101977.44;5055440;28;71705;-73
2022/07/05 02:01:36;;;;;;;;;2.00;2.00;;;;;18.86;84.08;101980.16;5056758;28;45213;-73
2022/07/05 02:04:04;;;;;;;;;3.00;1.00;;;;;18.84;84.44;101979.25;5056741;28;45200;-74
2022/07/05 02:06:30;;;;;;;;;2.00;2.00;;;;;18.80;84.63;101975.72;5056341;28;47549;-73
2022/07/05 02:08:56;;;;;;;;;3.33;2.00;;;;;18.77;85.26;101975.72;5056787;28;45569;-73
2022/07/05 02:11:21;;;;;;;;;2.00;2.00;;;;;18.76;85.85;101968.59;5056110;28;64859;-73
2022/07/05 02:13:46;;;;;;;;;1.00;1.00;;;;;18.71;86.40;101967.72;5056696;28;45482;-72
2022/07/05 02:16:12;;;;;;;;;2.33;2.33;;;;;18.70;86.09;101971.28;5055049;28;70092;-74
2022/07/05 02:18:37;;;;;;;;;2.00;2.00;;;;;18.68;85.90;101972.19;5056074;28;66329;-73
2022/07/05 02:21:03;;;;;;;;;3.00;2.00;;;;;18.64;86.02;101968.59;5056702;28;45549;-73
2022/07/05 02:23:28;;;;;;;;;4.00;1.00;;;;;18.62;87.01;101973.06;5056419;28;45552;-73
2022/07/05 02:25:53;;;;;;;;;3.00;2.00;;;;;18.61;87.09;101973.97;5055641;28;63745;-73
2022/07/05 02:28:19;;;;;;;;;1.00;1.00;;;;;18.56;87.20;101968.63;5055694;28;64970;-73
2022/07/05 02:30:44;;;;;;;;;1.00;1.00;;;;;18.52;88.48;101964.19;5054411;28;58344;-74
2022/07/05 02:33:09;;;;;;;;;4.67;2.00;;;;;18.47;87.98;101965.09;5054694;28;48627;-73
2022/07/05 02:35:35;;;;;;;;;1.33;1.33;;;;;18.45;88.28;101966.91;5055112;28;67691;-73
2022/07/05 02:38:00;;;;;;;;;2.00;2.00;;;;;18.44;89.59;101971.34;5056684;28;45341;-73
2022/07/05 02:40:25;;;;;;;;;3.67;2.00;;;;;18.39;89.37;101964.25;5055247;28;60726;-73
2022/07/05 02:42:51;;;;;;;;;2.33;1.33;;;;;18.38;89.75;101970.50;5055474;28;58076;-73
2022/07/05 02:45:16;;;;;;;;;3.67;2.00;;;;;18.36;90.31;101959.78;5055593;28;68737;-73
2022/07/05 02:47:41;;;;;;;;;4.00;2.00;;;;;18.34;89.97;101966.94;5054991;28;67170;-73
2022/07/05 02:50:08;;;;;;;;;4.00;2.00;;;;;18.32;90.82;101966.03;5056089;28;45805;-73
2022/07/05 02:52:34;;;;;;;;;3.33;3.00;;;;;18.27;91.70;101965.19;5056278;28;45481;-73
2022/07/05 02:55:00;;;;;;;;;2.00;2.00;;;;;18.20;91.87;101966.06;5055470;28;46414;-73
2022/07/05 02:57:25;;;;;;;;;3.67;2.00;;;;;18.18;92.14;101975.88;5055702;28;45446;-73
2022/07/05 02:59:54;;;;;;;;;4.33;2.00;;;;;18.13;92.97;101967.88;5055262;28;45333;-73
2022/07/05 03:02:19;;;;;;;;;2.00;2.00;;;;;18.12;92.27;101975.91;5056092;28;45198;-73
2022/07/05 03:04:45;;;;;;;;;4.00;3.00;;;;;18.08;92.53;101972.34;5054623;28;46631;-73
2022/07/05 03:07:10;;;;;;;;;4.00;3.00;;;;;18.09;93.55;101971.44;5055722;28;57959;-73
2022/07/05 03:09:35;;;;;;;;;4.00;3.00;;;;;18.05;93.61;101978.56;5055137;28;63472;-73
2022/07/05 03:12:01;;;;;;;;;5.00;2.00;;;;;18.03;93.98;101968.78;5055597;28;45450;-73
2022/07/05 03:14:26;;;;;;;;;5.00;3.00;;;;;18.01;93.79;101968.78;5053965;28;47332;-74
2022/07/05 03:16:51;;;;;;;;;5.33;2.67;;;;;18.00;94.93;101975.03;5055040;28;67523;-73
2022/07/05 03:19:17;;;;;;;;;7.00;3.00;;;;;17.97;95.46;101972.34;5055302;28;58456;-73
2022/07/05 03:21:43;;;;;;;;;3.33;3.33;;;;;17.96;94.94;101975.94;5055028;28;57472;-73
2022/07/05 03:24:09;;;;;;;;;6.33;4.00;;;;;17.94;94.99;101974.13;5055796;28;47392;-73
2022/07/05 03:26:34;;;;;;;;;5.00;4.00;;;;;17.90;96.19;101975.94;5054827;28;70359;-73
2022/07/05 03:28:59;;;;;;;;;6.00;5.00;;;;;17.89;96.94;101975.91;5054551;28;62837;-73
2022/07/05 03:31:25;;;;;;;;;8.33;5.00;;;;;17.85;97.22;101976.84;5055523;28;45233;-73
2022/07/05 03:33:50;;;;;;;;;6.00;3.67;;;;;17.83;97.38;101981.25;5054660;28;66837;-74
2022/07/05 03:36:15;;;;;;;;;6.67;4.00;;;;;17.80;97.46;101983.06;5055340;28;45444;-73
2022/07/05 03:38:41;;;;;;;;;6.67;5.00;;;;;17.80;97.85;101982.16;5055682;28;46051;-73
2022/07/05 03:41:06;;;;;;;;;4.00;4.00;;;;;17.77;97.86;101977.69;5055221;28;56400;-73
2022/07/05 03:43:31;;;;;;;;;5.67;3.67;;;;;17.76;99.02;101981.28;5054519;28;47212;-73
2022/07/05 03:45:57;;;;;;;;;5.00;3.33;;;;;17.75;100.00;101978.59;5054982;28;63189;-73
2022/07/05 03:48:22;;;;;;;;;5.00;4.00;;;;;17.71;100.00;101987.47;5055347;28;45490;-73
2022/07/05 03:50:47;;;;;;;;;6.33;5.00;;;;;17.64;100.00;101996.38;5055740;28;45267;-73
2022/07/05 03:53:13;;;;;;;;;5.00;4.00;;;;;17.63;100.00;102002.59;5054665;28;67465;-73
2022/07/05 03:55:38;;;;;;;;;9.00;4.00;;;;;17.60;100.00;101995.47;5053778;28;62447;-73
2022/07/05 03:58:03;;;;;;;;;5.33;4.00;;;;;17.61;100.00;101999.94;5054853;28;45505;-73
2022/07/05 04:00:29;;;;;;;;;5.33;5.33;;;;;17.62;100.00;102001.72;5054835;28;62441;-73
2022/07/05 04:02:54;;;;;;;;;4.00;4.00;;;;;17.61;100.00;102007.06;5057764;28;45587;-73
2022/07/05 04:05:19;;;;;;;;;5.00;4.00;;;;;17.61;100.00;102002.59;5056861;28;67503;-73
2022/07/05 04:07:50;;;;;;;;;3.00;3.00;;;;;17.64;100.00;102004.41;5058279;28;52295;-73
2022/07/05 04:10:15;;;;;;;;;5.00;3.67;;;;;17.67;100.00;102010.63;5051649;28;46329;-74
2022/07/05 04:12:41;;;;;;;;;3.33;3.00;;;;;17.63;100.00;102007.94;5058255;28;47472;-73
2022/07/05 04:15:07;;;;;;;;;5.00;4.00;;;;;17.63;100.00;102003.50;5058019;28;53450;-72
2022/07/05 04:17:32;;;;;;;;;6.67;3.00;;;;;17.63;100.00;102019.53;5059058;28;45461;-74
2022/07/05 04:19:57;;;;;;;;;4.00;4.00;;;;;17.65;100.00;102016.84;5059098;28;56462;-73
2022/07/05 04:22:23;;;;;;;;;4.00;4.00;;;;;17.61;100.00;102018.63;5057409;28;47278;-73
2022/07/05 04:25:33;;;;;;;;;1.00;1.00;;;;;17.57;100.00;102016.84;5057947;28;45659;-73
2022/07/05 04:27:34;;;;;;;;;4.00;4.00;;;;;17.55;100.00;102026.63;5039103;28;45474;-73
2022/07/05 04:29:59;;;;;;;;;5.33;4.67;;;;;17.55;100.00;102029.31;5057243;28;60409;-73
2022/07/05 04:32:24;;;;;;;;;8.00;6.00;;;;;17.55;100.00;102030.19;5056975;28;71492;-74
2022/07/05 04:34:50;;;;;;;;;5.67;5.33;;;;;17.52;100.00;102030.22;5058169;28;45324;-73
2022/07/05 04:37:15;;;;;;;;;6.00;6.00;;;;;17.54;100.00;102027.53;5058385;28;45605;-73
2022/07/05 04:39:40;;;;;;;;;8.33;5.67;;;;;17.53;100.00;102028.44;5056838;28;65587;-73
2022/07/05 04:42:06;;;;;;;;;5.00;5.00;;;;;17.48;100.00;102020.41;5057338;28;67172;-73
2022/07/05 04:44:31;;;;;;;;;6.33;5.33;;;;;17.48;100.00;102027.53;5058359;28;45169;-72
2022/07/05 04:46:56;;;;;;;;;5.00;5.00;;;;;17.49;100.00;102023.97;5057013;28;64715;-73
2022/07/05 04:49:22;;;;;;;;;7.67;4.33;;;;;17.45;100.00;102023.06;5058074;28;45472;-72
2022/07/05 04:51:47;;;;;;;;;8.00;6.00;;;;;17.49;100.00;102029.31;5057357;28;64247;-73
2022/07/05 04:54:12;;;;;;;;;4.67;4.67;;;;;17.54;100.00;102038.22;5063560;27;60636;-73
2022/07/05 04:56:38;;;;;;;;;7.33;5.67;;;;;17.54;100.00;102040.88;5181960;22;63466;-73
2022/07/05 04:59:03;;;;;;;;;8.33;5.33;;;;;17.53;100.00;102036.44;5055843;28;61149;-73
2022/07/05 05:01:28;;;;;;;;;5.67;5.67;;;;;17.49;100.00;102032.88;5056699;28;67581;-73
2022/07/05 05:03:54;;;;;;;;;8.67;5.00;;;;;17.52;100.00;102031.97;5054655;28;61399;-73
2022/07/05 05:06:19;;;;;;;;;6.33;6.00;;;;;17.58;100.00;102037.34;5055006;28;58866;-74
2022/07/05 05:08:44;;;;;;;;;5.00;5.00;;;;;17.65;100.00;102048.91;5057458;28;45406;-73
2022/07/05 05:11:10;;;;;;;;;8.00;5.00;;;;;17.69;100.00;102043.59;5056050;28;69766;-73
2022/07/05 05:13:35;;;;;;;;;2.00;2.00;;;;;17.67;100.00;102039.09;5057596;28;45352;-73
2022/07/05 05:16:01;;;;;;;;;8.00;6.00;;;;;17.67;100.00;102040.00;5057801;28;45741;-73
2022/07/05 05:18:27;;;;;;;;;9.67;6.00;;;;;17.66;100.00;102032.88;5056801;28;62630;-73
2022/07/05 05:20:55;;;;;;;;;7.67;6.00;;;;;17.67;100.00;102039.09;5056739;28;46550;-73
2022/07/05 05:23:23;;;;;;;;;6.33;6.33;;;;;17.70;100.00;102041.78;5057136;28;45614;-73
2022/07/05 05:25:49;;;;;;;;;7.00;4.00;;;;;17.72;100.00;102042.69;5057253;28;60099;-73
2022/07/05 05:28:15;;;;;;;;;9.67;7.00;;;;;17.79;100.00;102047.19;5057475;28;45525;-73
2022/07/05 05:30:40;;;;;;;;;6.00;6.00;;;;;17.82;100.00;102046.28;5055695;28;46505;-74
2022/07/05 05:33:05;;;;;;;;;8.00;5.67;;;;;17.85;100.00;102051.66;5056014;28;65156;-74
2022/07/05 05:35:31;;;;;;;;;6.00;6.00;;;;;17.87;100.00;102050.75;5057397;28;45391;-73
2022/07/05 05:37:56;;;;;;;;;9.67;7.00;;;;;17.87;100.00;102049.84;5056758;28;57839;-73
2022/07/05 05:40:23;;;;;;;;;8.33;7.00;;;;;17.85;100.00;102043.63;5047665;28;46669;-73
2022/07/05 05:42:50;;;;;;;;;8.67;6.67;;;;;17.84;100.00;102060.53;5050011;28;45456;-74
2022/07/05 05:45:16;;;;;;;;;6.67;6.00;;;;;17.84;100.00;102061.41;5056792;28;45726;-73
2022/07/05 05:47:51;;;;;;;;;7.67;6.00;;;;;17.78;100.00;102054.28;5056979;28;45782;-77
2022/07/05 05:50:31;;;;;;;;;7.00;7.00;;;;;17.77;100.00;102065.88;5052435;28;46303;-76
2022/07/05 05:52:56;;;;;;;;;9.67;7.67;;;;;17.75;100.00;102066.78;5054180;28;45379;-78
2022/07/05 05:55:23;;;;;;;;;11.33;10.00;;;;;17.75;100.00;102067.66;5056979;28;45516;-80
2022/07/05 05:57:49;;;;;;;;;8.00;8.00;;;;;17.72;100.00;102069.38;5057078;28;45419;-74
2022/07/05 06:00:16;;;;;;;;;8.67;7.00;;;;;17.65;100.00;102072.94;5054922;28;46666;-74
2022/07/05 06:02:42;;;;;;;;;8.00;7.33;;;;;17.59;100.00;102067.59;5055710;28;45524;-75
2022/07/05 06:05:08;;;;;;;;;11.00;8.00;;;;;17.61;100.00;102069.38;5055773;28;45485;-75
2022/07/05 06:07:53;;;;;;;;;9.67;8.00;;;;;17.65;100.00;102067.59;5056903;28;45732;-76
2022/07/05 06:10:21;;;;;;;;;10.00;8.33;;;;;17.69;100.00;102067.63;5053494;28;46595;-76
2022/07/05 06:12:46;;;;;;;;;9.33;9.33;;;;;17.76;100.00;102074.78;5056334;28;45360;-75
2022/07/05 06:15:12;;;;;;;;;9.00;7.00;;;;;17.82;100.00;102079.22;5056338;28;45297;-75
2022/07/05 06:17:38;;;;;;;;;8.00;8.00;;;;;17.83;100.00;102069.44;5055691;28;52614;-77
2022/07/05 06:20:08;;;;;;;;;10.00;9.00;;;;;17.88;100.00;102075.69;5056039;28;46515;-75
2022/07/05 06:22:33;;;;;;;;;15.33;10.00;;;;;17.87;100.00;102076.56;5054503;28;45386;-75
2022/07/05 06:24:59;;;;;;;;;12.00;8.00;;;;;17.90;100.00;102069.47;5052772;28;60031;-75
2022/07/05 06:27:24;;;;;;;;;11.67;9.00;;;;;17.95;100.00;102081.03;5055663;28;45648;-76
2022/07/05 06:29:49;;;;;;;;;10.00;7.67;;;;;18.00;100.00;102078.34;5055382;28;69378;-75
2022/07/05 06:32:15;;;;;;;;;12.00;9.33;;;;;17.97;100.00;102081.94;5055538;28;66776;-75
2022/07/05 06:34:40;;;;;;;;;14.67;7.00;;;;;17.98;100.00;102073.00;5054597;28;61930;-76
2022/07/05 06:37:05;;;;;;;;;8.67;7.00;;;;;17.97;100.00;102079.25;5051720;28;61946;-74
2022/07/05 06:39:31;;;;;;;;;10.67;8.00;;;;;17.96;100.00;102082.81;5052258;28;67383;-75
2022/07/05 06:41:56;;;;;;;;;13.00;9.00;;;;;17.98;100.00;102072.13;5055472;28;45491;-74
2022/07/05 06:44:21;;;;;;;;;9.00;8.00;;;;;18.02;100.00;102076.59;5054473;28;63257;-74
2022/07/05 06:46:47;;;;;;;;;8.00;8.00;;;;;18.04;100.00;102080.13;5055676;28;45661;-74
2022/07/05 06:49:12;;;;;;;;;9.00;7.00;;;;;18.07;100.00;102080.16;5055481;28;62660;-74
2022/07/05 06:51:37;;;;;;;;;11.33;10.00;;;;;18.11;100.00;102081.03;5054485;28;66958;-74
2022/07/05 06:54:03;;;;;;;;;13.33;8.33;;;;;18.17;100.00;102079.25;5055136;28;64104;-73
2022/07/05 06:56:28;;;;;;;;;13.00;10.00;;;;;18.23;100.00;102086.38;5054388;28;45561;-74
2022/07/05 06:58:53;;;;;;;;;9.00;7.00;;;;;18.26;100.00;102087.25;5050126;28;65591;-74
2022/07/05 07:01:19;;;;;;;;;10.00;9.00;;;;;18.35;100.00;102090.81;5054462;28;65770;-74
2022/07/05 07:03:44;;;;;;;;;10.67;9.00;;;;;18.41;100.00;102089.03;5054710;28;63621;-74
2022/07/05 07:06:09;;;;;;;;;13.00;10.33;;;;;18.46;100.00;102081.00;5055691;28;45735;-74
2022/07/05 07:11:19;;;;;;;;;9.67;8.00;;;;;18.51;100.00;102082.78;5052552;28;45869;-77
2022/07/05 07:13:44;;;;;;;;;6.00;6.00;;;;;18.57;100.00;102081.88;5051760;28;45514;-76
2022/07/05 07:16:09;;;;;;;;;9.67;8.00;;;;;18.64;100.00;102080.06;5053076;28;58099;-76
2022/07/05 07:18:35;;;;;;;;;9.00;9.00;;;;;18.66;100.00;102075.63;5052851;28;66668;-77
2022/07/05 07:21:01;;;;;;;;;9.00;9.00;;;;;18.71;100.00;102077.41;5053388;28;45580;-76
2022/07/05 07:23:26;;;;;;;;;9.33;9.33;;;;;18.78;100.00;102083.63;5055268;28;45505;-76
2022/07/05 07:25:51;;;;;;;;;11.00;8.00;;;;;18.82;100.00;102085.41;5053185;28;57951;-76
2022/07/05 07:28:17;;;;;;;;;13.00;8.33;;;;;18.84;100.00;102081.81;5054668;28;51398;-77
2022/07/05 07:30:42;;;;;;;;;11.00;10.00;;;;;18.89;100.00;102083.59;5052896;28;66023;-75
2022/07/05 07:33:07;;;;;;;;;11.00;9.33;;;;;18.92;100.00;102092.53;5054649;28;45373;-76
2022/07/05 07:35:33;;;;;;;;;12.33;9.00;;;;;18.97;100.00;102090.72;5055784;28;62461;-75
2022/07/05 07:37:58;;;;;;;;;8.33;6.33;;;;;18.99;100.00;102091.59;5056618;28;46399;-75
2022/07/05 07:40:23;;;;;;;;;10.33;9.00;;;;;19.07;100.00;102099.63;5055732;28;65649;-76
2022/07/05 07:42:49;;;;;;;;;9.33;9.33;;;;;19.14;100.00;102087.09;5057117;28;61681;-75
2022/07/05 07:45:14;;;;;;;;;8.00;8.00;;;;;19.20;100.00;102095.97;5058370;28;45552;-77
2022/07/05 07:47:40;;;;;;;;;8.00;8.00;;;;;19.25;100.00;102093.28;5057489;28;63407;-76
2022/07/05 07:50:06;;;;;;;;;8.33;6.33;;;;;19.30;100.00;102099.50;5057158;28;45524;-76
2022/07/05 07:52:33;;;;;;;;;12.00;9.00;;;;;19.37;100.00;102099.44;5055742;28;45450;-76
2022/07/05 07:54:59;;;;;;;;;8.33;8.33;;;;;19.44;100.00;102105.69;5057048;28;45518;-76
2022/07/05 07:57:24;;;;;;;;;13.33;9.00;;;;;19.50;100.00;102110.13;5057166;28;46335;-77
2022/07/05 07:59:49;;;;;;;;;10.67;8.00;;;;;19.53;100.00;102099.38;5056743;28;45549;-76
2022/07/05 08:02:17;;;;;;;;;11.00;7.33;;;;;19.58;100.00;102097.56;5055740;28;61033;-76
2022/07/05 08:04:42;;;;;;;;;10.00;7.00;;;;;19.63;100.00;102096.66;5058198;28;45636;-76
2022/07/05 08:07:07;;;;;;;;;6.67;6.67;;;;;19.68;100.00;102099.31;5055969;28;65726;-76
2022/07/05 08:09:33;;;;;;;;;12.00;7.67;;;;;19.72;100.00;102101.09;5057467;28;45299;-75
2022/07/05 08:11:58;;;;;;;;;7.00;7.00;;;;;19.76;100.00;102099.25;5057466;28;62052;-76
2022/07/05 08:14:24;;;;;;;;;9.67;7.00;;;;;19.80;100.00;102099.22;5056290;28;52473;-76
2022/07/05 08:16:50;;;;;;;;;6.00;6.00;;;;;19.86;100.00;102103.66;5056549;28;66714;-76
2022/07/05 08:22:01;;;;;;;;;7.67;7.00;;;;;19.98;100.00;102098.22;5056398;28;45532;-76
2022/07/05 08:24:26;;;;;;;;;6.67;6.00;;;;;20.03;100.00;102091.03;5057702;28;45327;-76
2022/07/05 08:26:52;;;;;;;;;10.00;9.00;;;;;20.10;100.00;102078.47;5056643;28;47306;-77
2022/07/05 08:29:17;;;;;;;;;9.00;6.67;;;;;20.17;100.00;102082.84;5051011;28;66624;-76
2022/07/05 08:31:45;;;;;;;;;7.33;6.00;;;;;20.16;100.00;102075.72;5055784;28;66313;-75
2022/07/05 08:34:11;;;;;;;;;5.00;5.00;;;;;20.22;100.00;102082.81;5056539;28;45485;-76
2022/07/05 08:36:37;;;;;;;;;7.33;7.33;;;;;20.28;100.00;102089.00;5056861;28;46678;-76
2022/07/05 08:39:03;;;;;;;;;8.67;7.00;;;;;20.32;100.00;102080.03;5057231;28;45516;-76
2022/07/05 08:41:29;;;;;;;;;8.00;7.00;;;;;20.37;100.00;102078.19;5057324;28;45505;-76
2022/07/05 08:43:57;;;;;;;;;7.33;6.00;;;;;20.41;100.00;102081.75;5055820;28;45420;-76
2022/07/05 08:46:25;;;;;;;;;11.00;9.00;;;;;20.42;100.00;102075.47;5055782;28;47600;-76
2022/07/05 08:48:51;;;;;;;;;5.00;5.00;;;;;20.47;100.00;102072.78;5056382;28;45516;-75
2022/07/05 08:51:20;;;;;;;;;6.67;6.33;;;;;20.53;100.00;102075.41;5055723;28;45510;-76
2022/07/05 08:53:46;;;;;;;;;10.33;6.67;;;;;20.59;100.00;102078.91;5052027;28;45508;-75
2022/07/05 08:56:13;;;;;;;;;6.67;5.67;;;;;20.63;100.00;102069.03;5056176;28;47372;-77
2022/07/05 08:58:39;;;;;;;;;7.67;7.00;;;;;20.71;100.00;102080.56;5056032;28;45656;-76
2022/07/05 09:01:06;;;;;;;;;7.00;7.00;;;;;20.75;98.70;102082.31;5055328;28;45441;-76
2022/07/05 09:03:33;;;;;;;;;7.33;6.00;;;;;20.76;97.28;102075.16;5055995;28;45525;-76
2022/07/05 09:06:01;;;;;;;;;8.33;5.67;;;;;20.79;97.63;102073.31;5053084;28;46427;-77
2022/07/05 09:08:30;;;;;;;;;5.67;4.33;;;;;20.85;97.86;102078.63;5056605;28;45660;-76
2022/07/05 09:10:55;;;;;;;;;8.00;6.00;;;;;20.89;96.86;102069.63;5054882;28;45476;-76
2022/07/05 09:13:20;;;;;;;;;7.33;6.00;;;;;20.98;96.16;102068.59;5054989;28;63855;-76
2022/07/05 09:15:46;;;;;;;;;6.67;5.33;;;;;21.04;96.14;102067.63;5050404;28;63243;-76
2022/07/05 09:18:11;;;;;;;;;8.67;6.33;;;;;21.09;94.47;102068.47;5054171;28;45462;-77
2022/07/05 09:20:37;;;;;;;;;7.33;3.00;;;;;21.12;94.47;102073.81;5054859;28;45564;-75
2022/07/05 09:23:02;;;;;;;;;7.67;6.00;;;;;21.12;93.15;102065.75;5055366;28;58478;-76
2022/07/05 09:25:30;;;;;;;;;5.00;5.00;;;;;21.17;92.93;102064.78;5055246;28;46260;-75
2022/07/05 09:27:57;;;;;;;;;9.33;6.33;;;;;21.25;92.96;102069.16;5053926;28;45398;-75
2022/07/05 09:30:30;;;;;;;;;5.33;5.33;;;;;21.27;90.45;102068.25;5049751;28;45146;-75
2022/07/05 09:33:03;;;;;;;;;7.00;6.00;;;;;21.28;91.24;102064.63;5051829;28;45394;-78
2022/07/05 09:35:29;;;;;;;;;6.00;5.00;;;;;21.33;91.37;102065.50;5055485;28;46432;-78
2022/07/05 09:37:55;;;;;;;;;3.00;3.00;;;;;21.39;89.28;102065.41;5054751;28;45494;-78
2022/07/05 09:40:20;;;;;;;;;4.67;4.00;;;;;21.46;89.19;102066.19;5055106;28;45961;-78
2022/07/05 09:42:46;;;;;;;;;3.00;3.00;;;;;21.54;88.33;102071.50;5056014;28;58241;-77
2022/07/05 09:45:11;;;;;;;;;5.00;5.00;;;;;21.63;89.07;102065.97;5053502;28;47349;-77
2022/07/05 09:47:37;;;;;;;;;7.00;5.00;;;;;21.74;88.91;102071.19;5053660;28;62466;-78
2022/07/05 09:50:06;;;;;;;;;8.00;5.00;;;;;21.84;87.99;102079.09;5055536;28;45540;-77
2022/07/05 09:52:42;;;;;;;;;5.00;5.00;;;;;21.91;87.25;102061.06;5052033;28;45653;-77
2022/07/05 09:55:07;;;;;;;;;5.33;4.67;;;;;22.04;86.36;102072.47;5050583;28;46734;-78
2022/07/05 09:57:34;;;;;;;;;6.00;5.00;;;;;22.12;86.71;102067.91;5059779;28;45557;-78
2022/07/05 10:00:01;;;;;;;;;5.00;5.00;;;;;22.20;86.34;102064.16;5054900;28;45462;-77
2022/07/05 10:02:38;;;;;;;;;4.67;4.67;;;;;22.27;86.12;102062.25;5053343;28;45482;-78
2022/07/05 10:05:12;;;;;;;;;5.67;5.00;;;;;22.32;86.70;102059.47;5057986;28;46530;-78
2022/07/05 10:07:51;;;;;;;;;7.00;4.00;;;;;22.40;86.13;102063.78;5056944;27;45204;-78
2022/07/05 10:10:27;;;;;;;;;4.67;4.67;;;;;22.50;85.88;102061.81;5056044;28;45402;-78
2022/07/05 10:12:57;;;;;;;;;4.00;4.00;;;;;22.58;83.93;102061.66;5055762;28;45581;-77
2022/07/05 10:15:26;;;;;;;;;4.67;4.00;;;;;22.64;84.59;102058.88;5055125;28;46526;-78
2022/07/05 10:18:09;;;;;;;;;5.33;5.33;;;;;22.79;83.75;102061.25;5055639;28;45371;-78
2022/07/05 10:20:44;;;;;;;;;3.67;3.67;;;;;22.86;83.17;102060.22;5052742;28;45547;-81
2022/07/05 10:23:19;;;;;;;;;5.33;3.67;;;;;22.92;82.17;102061.94;5053306;28;45440;-77
2022/07/05 10:25:49;;;;;;;;;6.67;3.00;;;;;22.96;80.65;102067.22;5053693;28;57089;-77
2022/07/05 10:28:16;;;;;;;;;4.00;4.00;;;;;22.96;79.49;102059.16;5055785;28;45563;-79
2022/07/05 10:30:45;;;;;;;;;4.00;4.00;;;;;23.03;79.60;102061.72;5055435;28;45511;-78
2022/07/05 10:33:14;;;;;;;;;5.00;5.00;;;;;23.11;80.05;102067.81;5054356;28;45764;-79
2022/07/05 10:35:42;;;;;;;;;6.00;5.00;;;;;23.21;79.00;102061.28;5054453;28;46338;-77
2022/07/05 10:38:09;;;;;;;;;5.67;3.33;;;;;23.25;77.95;102061.19;5049769;28;45505;-78
2022/07/05 10:40:35;;;;;;;;;5.67;4.33;;;;;23.27;77.08;102047.69;5054421;28;45344;-77
2022/07/05 10:43:02;;;;;;;;;4.67;4.67;;;;;23.31;77.46;102040.44;5055226;28;45552;-77
2022/07/05 10:45:35;;;;;;;;;6.67;5.00;;;;;23.39;76.06;102043.84;5054389;28;46478;-77
2022/07/05 10:48:09;;;;;;;;;4.00;4.00;;;;;23.49;75.37;102048.09;5054100;28;46597;-78
2022/07/05 10:50:59;;;;;;;;;4.33;4.33;;;;;23.53;74.39;102044.38;5053766;28;45596;-77
2022/07/05 10:53:27;;;;;;;;;5.00;5.00;;;;;23.56;72.61;102046.16;5049991;28;46742;-78
2022/07/05 10:55:58;;;;;;;;;4.00;4.00;;;;;23.62;74.16;102041.47;5042655;28;47539;-78
2022/07/05 10:58:43;;;;;;;;;3.67;2.00;;;;;23.70;73.35;102039.53;5049439;28;45674;-79
2022/07/05 11:01:20;;;;;;;;;3.00;3.00;;;;;23.79;74.41;102043.81;5050312;28;45489;-79
2022/07/05 11:03:46;;;;;;;;;4.00;4.00;;;;;23.87;73.15;102036.41;5050450;28;45272;-78
2022/07/05 11:06:25;;;;;;;;;3.67;3.67;;;;;23.92;71.25;102029.09;5054871;28;47570;-80
2022/07/05 11:08:57;;;;;;;;;3.33;3.33;;;;;24.00;70.64;102032.47;5054472;28;45533;-78
2022/07/05 11:11:27;;;;;;;;;3.00;3.00;;;;;24.11;70.14;102034.00;5054236;28;45453;-78
2022/07/05 11:13:55;;;;;;;;;2.00;2.00;;;;;24.23;69.10;102039.94;5052888;28;45544;-78
2022/07/05 11:16:38;;;;;;;;;4.00;4.00;;;;;24.41;69.44;102037.75;5051367;28;46479;-79
2022/07/05 11:19:07;;;;;;;;;6.33;4.33;;;;;24.66;69.37;102036.13;5054741;28;45565;-79
2022/07/05 11:21:34;;;;;;;;;4.33;4.33;;;;;24.85;68.98;102031.06;5051426;28;45523;-77
2022/07/05 11:24:21;;;;;;;;;3.67;3.67;;;;;25.03;68.84;102025.09;5053578;28;45566;-78
2022/07/05 11:26:52;;;;;;;;;3.67;3.67;;;;;25.15;67.19;102036.53;5052800;28;47930;-76